sensor_id;sensor_type;location;lat;lon;timestamp;pressure;altitude;pressure_sealevel;temperature;humidity
5913;BME280;2982;42.684;23.356;2024-02-23T00:00:19;94681.72;;;6.07;100.00
5913;BME280;2982;42.684;23.356;2024-02-23T00:02:44;94684.31;;;6.05;100.00
5913;BME280;2982;42.684;23.356;2024-02-23T00:05:10;94681.38;;;5.94;100.00
5913;BME280;2982;42.684;23.356;2024-02-23T00:07:35;94681.16;;;6.00;100.00
5913;BME280;2982;42.684;23.356;2024-02-23T00:10:00;94676.94;;;6.01;100.00
5913;BME280;2982;42.684;23.356;2024-02-23T00:12:26;94670.75;;;6.08;100.00
5913;BME280;2982;42.684;23.356;2024-02-23T00:14:51;94689.47;;;6.02;100.00
5913;BME280;2982;42.684;23.356;2024-02-23T00:17:16;94685.50;;;5.97;100.00
5913;BME280;2982;42.684;23.356;2024-02-23T00:19:44;94675.47;;;5.95;100.00
5913;BME280;2982;42.684;23.356;2024-02-23T00:22:10;94684.13;;;5.88;100.00
5913;BME280;2982;42.684;23.356;2024-02-23T00:24:35;94653.81;;;5.68;100.00
5913;BME280;2982;42.684;23.356;2024-02-23T00:27:01;94652.03;;;5.70;100.00
5913;BME280;2982;42.684;23.356;2024-02-23T00:29:26;94659.44;;;5.74;100.00
5913;BME280;2982;42.684;23.356;2024-02-23T00:31:51;94631.06;;;5.69;100.00
5913;BME280;2982;42.684;23.356;2024-02-23T00:34:16;94669.78;;;5.90;100.00
5913;BME280;2982;42.684;23.356;2024-02-23T00:36:42;94643.47;;;5.74;100.00
5913;BME280;2982;42.684;23.356;2024-02-23T00:39:08;94665.75;;;5.85;100.00
5913;BME280;2982;42.684;23.356;2024-02-23T00:41:34;94647.25;;;5.64;100.00
5913;BME280;2982;42.684;23.356;2024-02-23T00:44:00;94663.72;;;5.72;100.00
5913;BME280;2982;42.684;23.356;2024-02-23T00:46:25;94668.63;;;5.75;100.00
5913;BME280;2982;42.684;23.356;2024-02-23T00:48:51;94663.31;;;5.83;100.00
5913;BME280;2982;42.684;23.356;2024-02-23T00:51:16;94640.44;;;5.66;100.00
5913;BME280;2982;42.684;23.356;2024-02-23T00:53:41;94642.56;;;5.76;100.00
5913;BME280;2982;42.684;23.356;2024-02-23T00:56:07;94637.69;;;5.72;100.00
5913;BME280;2982;42.684;23.356;2024-02-23T00:58:32;94642.56;;;5.76;100.00
5913;BME280;2982;42.684;23.356;2024-02-23T01:00:57;94635.31;;;5.69;100.00
5913;BME280;2982;42.684;23.356;2024-02-23T01:03:23;94637.00;;;5.68;100.00
5913;BME280;2982;42.684;23.356;2024-02-23T01:05:48;94650.28;;;5.72;100.00
5913;BME280;2982;42.684;23.356;2024-02-23T01:08:13;94648.19;;;5.61;100.00
5913;BME280;2982;42.684;23.356;2024-02-23T01:10:39;94644.84;;;5.61;100.00
5913;BME280;2982;42.684;23.356;2024-02-23T01:13:04;94647.63;;;5.55;100.00
5913;BME280;2982;42.684;23.356;2024-02-23T01:15:29;94641.75;;;5.54;100.00
5913;BME280;2982;42.684;23.356;2024-02-23T01:17:54;94638.50;;;5.51;100.00
5913;BME280;2982;42.684;23.356;2024-02-23T01:20:20;94626.28;;;5.63;100.00
5913;BME280;2982;42.684;23.356;2024-02-23T01:22:45;94620.88;;;5.51;100.00
5913;BME280;2982;42.684;23.356;2024-02-23T01:25:11;94644.50;;;5.48;100.00
5913;BME280;2982;42.684;23.356;2024-02-23T01:27:36;94641.44;;;5.40;100.00
5913;BME280;2982;42.684;23.356;2024-02-23T01:30:01;94633.88;;;5.40;100.00
5913;BME280;2982;42.684;23.356;2024-02-23T01:32:27;94622.13;;;5.41;100.00
5913;BME280;2982;42.684;23.356;2024-02-23T01:34:52;94621.47;;;5.36;100.00
5913;BME280;2982;42.684;23.356;2024-02-23T01:37:17;94620.69;;;5.33;100.00
5913;BME280;2982;42.684;23.356;2024-02-23T01:39:43;94619.00;;;5.34;100.00
5913;BME280;2982;42.684;23.356;2024-02-23T01:42:08;94623.75;;;5.42;100.00
5913;BME280;2982;42.684;23.356;2024-02-23T01:44:33;94574.31;;;5.17;100.00
5913;BME280;2982;42.684;23.356;2024-02-23T01:46:59;94612.56;;;5.49;100.00
5913;BME280;2982;42.684;23.356;2024-02-23T01:49:25;94617.72;;;5.46;100.00
5913;BME280;2982;42.684;23.356;2024-02-23T01:51:50;94608.44;;;5.46;100.00
5913;BME280;2982;42.684;23.356;2024-02-23T01:54:16;94592.59;;;5.44;100.00
5913;BME280;2982;42.684;23.356;2024-02-23T01:56:41;94609.88;;;5.53;100.00
5913;BME280;2982;42.684;23.356;2024-02-23T01:59:07;94601.31;;;5.57;100.00
5913;BME280;2982;42.684;23.356;2024-02-23T02:01:35;94598.75;;;5.59;100.00
5913;BME280;2982;42.684;23.356;2024-02-23T02:04:00;94612.34;;;5.55;100.00
5913;BME280;2982;42.684;23.356;2024-02-23T02:06:25;94601.53;;;5.51;100.00
5913;BME280;2982;42.684;23.356;2024-02-23T02:08:51;94566.06;;;5.36;100.00
5913;BME280;2982;42.684;23.356;2024-02-23T02:11:16;94584.44;;;5.59;100.00
5913;BME280;2982;42.684;23.356;2024-02-23T02:13:41;94598.44;;;5.66;100.00
5913;BME280;2982;42.684;23.356;2024-02-23T02:16:07;94602.00;;;5.61;100.00
5913;BME280;2982;42.684;23.356;2024-02-23T02:18:32;94585.66;;;5.71;100.00
5913;BME280;2982;42.684;23.356;2024-02-23T02:20:58;94583.38;;;5.65;100.00
5913;BME280;2982;42.684;23.356;2024-02-23T02:23:24;94594.28;;;5.65;100.00
5913;BME280;2982;42.684;23.356;2024-02-23T02:25:56;94599.31;;;5.65;100.00
5913;BME280;2982;42.684;23.356;2024-02-23T02:28:23;94590.31;;;5.60;100.00
5913;BME280;2982;42.684;23.356;2024-02-23T02:30:49;94591.69;;;5.67;100.00
5913;BME280;2982;42.684;23.356;2024-02-23T02:33:14;94565.63;;;5.46;100.00
5913;BME280;2982;42.684;23.356;2024-02-23T02:35:40;94602.66;;;5.66;100.00
5913;BME280;2982;42.684;23.356;2024-02-23T02:38:05;94566.16;;;5.32;100.00
5913;BME280;2982;42.684;23.356;2024-02-23T02:40:30;94603.22;;;5.51;100.00
5913;BME280;2982;42.684;23.356;2024-02-23T02:42:56;94591.94;;;5.39;100.00
5913;BME280;2982;42.684;23.356;2024-02-23T02:45:21;94601.19;;;5.39;100.00
5913;BME280;2982;42.684;23.356;2024-02-23T02:47:47;94600.31;;;5.40;100.00
5913;BME280;2982;42.684;23.356;2024-02-23T02:50:12;94589.94;;;5.47;100.00
5913;BME280;2982;42.684;23.356;2024-02-23T02:52:37;94600.31;;;5.40;100.00
5913;BME280;2982;42.684;23.356;2024-02-23T02:55:03;94592.94;;;5.35;100.00
5913;BME280;2982;42.684;23.356;2024-02-23T02:57:28;94600.69;;;5.30;100.00
5913;BME280;2982;42.684;23.356;2024-02-23T02:59:54;94587.03;;;5.36;100.00
5913;BME280;2982;42.684;23.356;2024-02-23T03:02:19;94585.38;;;5.35;100.00
5913;BME280;2982;42.684;23.356;2024-02-23T03:04:50;94562.00;;;5.10;100.00
5913;BME280;2982;42.684;23.356;2024-02-23T03:07:16;94568.63;;;5.12;100.00
5913;BME280;2982;42.684;23.356;2024-02-23T03:09:42;94599.63;;;5.36;100.00
5913;BME280;2982;42.684;23.356;2024-02-23T03:12:08;94590.66;;;5.29;100.00
5913;BME280;2982;42.684;23.356;2024-02-23T03:14:33;94611.56;;;5.31;100.00
5913;BME280;2982;42.684;23.356;2024-02-23T03:16:58;94606.94;;;5.20;100.00
5913;BME280;2982;42.684;23.356;2024-02-23T03:19:24;94603.63;;;5.18;100.00
5913;BME280;2982;42.684;23.356;2024-02-23T03:21:49;94594.50;;;5.16;100.00
5913;BME280;2982;42.684;23.356;2024-02-23T03:24:15;94603.47;;;5.23;100.00
5913;BME280;2982;42.684;23.356;2024-02-23T03:26:40;94606.81;;;5.23;100.00
5913;BME280;2982;42.684;23.356;2024-02-23T03:29:05;94621.09;;;5.23;100.00
5913;BME280;2982;42.684;23.356;2024-02-23T03:31:31;94571.09;;;4.91;100.00
5913;BME280;2982;42.684;23.356;2024-02-23T03:33:56;94616.38;;;5.14;100.00
5913;BME280;2982;42.684;23.356;2024-02-23T03:36:21;94588.47;;;4.98;100.00
5913;BME280;2982;42.684;23.356;2024-02-23T03:38:47;94602.88;;;5.16;100.00
5913;BME280;2982;42.684;23.356;2024-02-23T03:41:12;94601.88;;;5.20;100.00
5913;BME280;2982;42.684;23.356;2024-02-23T03:43:37;94595.22;;;5.19;100.00
5913;BME280;2982;42.684;23.356;2024-02-23T03:46:03;94601.84;;;5.22;100.00
5913;BME280;2982;42.684;23.356;2024-02-23T03:48:28;94587.13;;;5.11;100.00
5913;BME280;2982;42.684;23.356;2024-02-23T03:50:54;94599.06;;;5.06;100.00
5913;BME280;2982;42.684;23.356;2024-02-23T03:53:19;94566.38;;;4.83;100.00
5913;BME280;2982;42.684;23.356;2024-02-23T03:55:44;94613.69;;;4.97;100.00
5913;BME280;2982;42.684;23.356;2024-02-23T03:58:10;94605.25;;;4.98;100.00
5913;BME280;2982;42.684;23.356;2024-02-23T04:00:35;94610.69;;;5.09;100.00
5913;BME280;2982;42.684;23.356;2024-02-23T04:03:00;94611.78;;;5.03;100.00
5913;BME280;2982;42.684;23.356;2024-02-23T04:05:26;94613.22;;;5.09;100.00
5913;BME280;2982;42.684;23.356;2024-02-23T04:07:51;94605.63;;;5.10;100.00
5913;BME280;2982;42.684;23.356;2024-02-23T04:10:17;94600.75;;;5.06;100.00
5913;BME280;2982;42.684;23.356;2024-02-23T04:12:42;94583.69;;;4.91;100.00
5913;BME280;2982;42.684;23.356;2024-02-23T04:15:08;94620.72;;;5.10;100.00
5913;BME280;2982;42.684;23.356;2024-02-23T04:17:33;94617.81;;;5.21;100.00
5913;BME280;2982;42.684;23.356;2024-02-23T04:20:00;94601.88;;;5.20;100.00
5913;BME280;2982;42.684;23.356;2024-02-23T04:22:30;94611.56;;;5.31;100.00
5913;BME280;2982;42.684;23.356;2024-02-23T04:24:55;94621.03;;;5.24;100.00
5913;BME280;2982;42.684;23.356;2024-02-23T04:27:20;94580.56;;;5.07;100.00
5913;BME280;2982;42.684;23.356;2024-02-23T04:29:46;94616.88;;;5.23;100.00
5913;BME280;2982;42.684;23.356;2024-02-23T04:32:11;94618.69;;;5.20;100.00
5913;BME280;2982;42.684;23.356;2024-02-23T04:34:36;94566.31;;;4.84;100.00
5913;BME280;2982;42.684;23.356;2024-02-23T04:37:02;94583.97;;;5.06;100.00
5913;BME280;2982;42.684;23.356;2024-02-23T04:39:27;94543.41;;;4.69;100.00
5913;BME280;2982;42.684;23.356;2024-02-23T04:41:52;94616.47;;;5.12;100.00
5913;BME280;2982;42.684;23.356;2024-02-23T04:44:18;94593.75;;;4.91;100.00
5913;BME280;2982;42.684;23.356;2024-02-23T04:46:43;94624.22;;;5.06;100.00
5913;BME280;2982;42.684;23.356;2024-02-23T04:49:10;94624.56;;;4.97;100.00
5913;BME280;2982;42.684;23.356;2024-02-23T04:51:35;94632.50;;;4.86;100.00
5913;BME280;2982;42.684;23.356;2024-02-23T04:54:00;94617.34;;;4.65;100.00
5913;BME280;2982;42.684;23.356;2024-02-23T04:56:26;94617.28;;;4.66;100.00
5913;BME280;2982;42.684;23.356;2024-02-23T04:58:51;94630.50;;;4.71;100.00
5913;BME280;2982;42.684;23.356;2024-02-23T05:01:16;94631.59;;;4.64;100.00
5913;BME280;2982;42.684;23.356;2024-02-23T05:03:42;94617.38;;;4.63;100.00
5913;BME280;2982;42.684;23.356;2024-02-23T05:06:07;94626.69;;;4.61;100.00
5913;BME280;2982;42.684;23.356;2024-02-23T05:08:32;94604.31;;;4.54;100.00
5913;BME280;2982;42.684;23.356;2024-02-23T05:10:58;94636.34;;;4.72;100.00
5913;BME280;2982;42.684;23.356;2024-02-23T05:13:24;94644.19;;;4.64;100.00
5913;BME280;2982;42.684;23.356;2024-02-23T05:15:49;94633.56;;;4.56;100.00
5913;BME280;2982;42.684;23.356;2024-02-23T05:18:15;94636.13;;;4.55;100.00
5913;BME280;2982;42.684;23.356;2024-02-23T05:20:40;94601.88;;;4.27;100.00
5913;BME280;2982;42.684;23.356;2024-02-23T05:23:05;94615.09;;;4.32;100.00
5913;BME280;2982;42.684;23.356;2024-02-23T05:25:32;94611.81;;;4.30;100.00
5913;BME280;2982;42.684;23.356;2024-02-23T05:27:57;94612.13;;;4.46;100.00
5913;BME280;2982;42.684;23.356;2024-02-23T05:30:22;94602.25;;;4.40;100.00
5913;BME280;2982;42.684;23.356;2024-02-23T05:32:48;94658.13;;;4.73;100.00
5913;BME280;2982;42.684;23.356;2024-02-23T05:35:14;94635.78;;;4.65;100.00
5913;BME280;2982;42.684;23.356;2024-02-23T05:37:40;94628.53;;;4.56;100.00
5913;BME280;2982;42.684;23.356;2024-02-23T05:40:06;94600.41;;;4.45;100.00
5913;BME280;2982;42.684;23.356;2024-02-23T05:42:31;94640.53;;;4.73;100.00
5913;BME280;2982;42.684;23.356;2024-02-23T05:44:57;94652.63;;;4.86;100.00
5913;BME280;2982;42.684;23.356;2024-02-23T05:47:22;94517.94;;;4.07;100.00
5913;BME280;2982;42.684;23.356;2024-02-23T05:49:47;94661.69;;;4.91;100.00
5913;BME280;2982;42.684;23.356;2024-02-23T05:52:13;94553.28;;;4.27;100.00
5913;BME280;2982;42.684;23.356;2024-02-23T05:54:38;94664.50;;;5.29;100.00
5913;BME280;2982;42.684;23.356;2024-02-23T05:57:04;94652.75;;;5.52;100.00
5913;BME280;2982;42.684;23.356;2024-02-23T05:59:29;94686.72;;;6.08;100.00
5913;BME280;2982;42.684;23.356;2024-02-23T06:02:00;94584.13;;;5.89;100.00
5913;BME280;2982;42.684;23.356;2024-02-23T06:04:25;94583.00;;;6.16;100.00
5913;BME280;2982;42.684;23.356;2024-02-23T06:06:51;94323.91;;;4.20;100.00
5913;BME280;2982;42.684;23.356;2024-02-23T06:09:17;94416.31;;;4.59;100.00
5913;BME280;2982;42.684;23.356;2024-02-23T06:11:42;94440.31;;;4.67;100.00
5913;BME280;2982;42.684;23.356;2024-02-23T06:14:08;94561.72;;;5.39;100.00
5913;BME280;2982;42.684;23.356;2024-02-23T06:16:33;94437.25;;;4.37;100.00
5913;BME280;2982;42.684;23.356;2024-02-23T06:18:59;94470.09;;;4.78;100.00
5913;BME280;2982;42.684;23.356;2024-02-23T06:21:24;94691.22;;;6.00;100.00
5913;BME280;2982;42.684;23.356;2024-02-23T06:23:50;94690.09;;;6.07;100.00
5913;BME280;2982;42.684;23.356;2024-02-23T06:26:15;94691.56;;;6.13;100.00
5913;BME280;2982;42.684;23.356;2024-02-23T06:28:40;94661.91;;;5.98;100.00
5913;BME280;2982;42.684;23.356;2024-02-23T06:31:06;94686.84;;;6.26;100.00
5913;BME280;2982;42.684;23.356;2024-02-23T06:33:31;94644.06;;;6.02;100.00
5913;BME280;2982;42.684;23.356;2024-02-23T06:35:56;94684.09;;;6.32;100.00
5913;BME280;2982;42.684;23.356;2024-02-23T06:38:22;94669.78;;;6.32;100.00
5913;BME280;2982;42.684;23.356;2024-02-23T06:40:47;94683.53;;;6.45;100.00
5913;BME280;2982;42.684;23.356;2024-02-23T06:43:13;94693.19;;;6.56;100.00
5913;BME280;2982;42.684;23.356;2024-02-23T06:45:38;94622.03;;;6.07;100.00
5913;BME280;2982;42.684;23.356;2024-02-23T06:48:04;94689.59;;;6.61;100.00
5913;BME280;2982;42.684;23.356;2024-02-23T06:50:29;94632.63;;;6.36;100.00
5913;BME280;2982;42.684;23.356;2024-02-23T06:52:54;94682.97;;;6.59;100.00
5913;BME280;2982;42.684;23.356;2024-02-23T06:55:20;94702.00;;;6.86;100.00
5913;BME280;2982;42.684;23.356;2024-02-23T06:57:45;94692.91;;;7.02;100.00
5913;BME280;2982;42.684;23.356;2024-02-23T07:00:11;94647.00;;;6.74;100.00
5913;BME280;2982;42.684;23.356;2024-02-23T07:02:37;94691.50;;;7.16;100.00
5913;BME280;2982;42.684;23.356;2024-02-23T07:05:03;94586.06;;;6.63;100.00
5913;BME280;2982;42.684;23.356;2024-02-23T07:07:28;94697.88;;;7.43;100.00
5913;BME280;2982;42.684;23.356;2024-02-23T07:09:53;94691.88;;;7.45;100.00
5913;BME280;2982;42.684;23.356;2024-02-23T07:12:19;94713.13;;;7.60;100.00
5913;BME280;2982;42.684;23.356;2024-02-23T07:14:44;94703.00;;;7.79;100.00
5913;BME280;2982;42.684;23.356;2024-02-23T07:17:09;94698.66;;;7.81;100.00
5913;BME280;2982;42.684;23.356;2024-02-23T07:19:35;94659.34;;;7.57;100.00
5913;BME280;2982;42.684;23.356;2024-02-23T07:22:00;94698.63;;;7.82;100.00
5913;BME280;2982;42.684;23.356;2024-02-23T07:24:25;94688.34;;;7.85;100.00
5913;BME280;2982;42.684;23.356;2024-02-23T07:26:51;94681.28;;;8.11;100.00
5913;BME280;2982;42.684;23.356;2024-02-23T07:29:16;94670.84;;;8.17;100.00
5913;BME280;2982;42.684;23.356;2024-02-23T07:31:41;94674.88;;;8.21;100.00
5913;BME280;2982;42.684;23.356;2024-02-23T07:34:07;94679.44;;;8.31;100.00
5913;BME280;2982;42.684;23.356;2024-02-23T07:36:32;94690.50;;;8.48;100.00
5913;BME280;2982;42.684;23.356;2024-02-23T07:38:57;94654.22;;;8.64;100.00
5913;BME280;2982;42.684;23.356;2024-02-23T07:41:22;94676.53;;;8.91;100.00
5913;BME280;2982;42.684;23.356;2024-02-23T07:43:48;94678.78;;;8.79;100.00
5913;BME280;2982;42.684;23.356;2024-02-23T07:46:13;94672.59;;;8.68;100.00
5913;BME280;2982;42.684;23.356;2024-02-23T07:48:38;94683.31;;;8.90;100.00
5913;BME280;2982;42.684;23.356;2024-02-23T07:51:05;94691.63;;;9.09;100.00
5913;BME280;2982;42.684;23.356;2024-02-23T07:53:30;94695.31;;;9.19;100.00
5913;BME280;2982;42.684;23.356;2024-02-23T07:55:55;94698.47;;;9.40;100.00
5913;BME280;2982;42.684;23.356;2024-02-23T07:58:21;94699.47;;;9.53;100.00
5913;BME280;2982;42.684;23.356;2024-02-23T08:00:46;94657.84;;;9.42;100.00
5913;BME280;2982;42.684;23.356;2024-02-23T08:03:11;94691.03;;;9.37;100.00
5913;BME280;2982;42.684;23.356;2024-02-23T08:05:37;94672.38;;;9.38;100.00
5913;BME280;2982;42.684;23.356;2024-02-23T08:08:02;94628.38;;;9.39;100.00
5913;BME280;2982;42.684;23.356;2024-02-23T08:10:28;94692.69;;;10.01;100.00
5913;BME280;2982;42.684;23.356;2024-02-23T08:12:53;94669.63;;;10.21;100.00
5913;BME280;2982;42.684;23.356;2024-02-23T08:15:18;94621.53;;;10.18;100.00
5913;BME280;2982;42.684;23.356;2024-02-23T08:17:44;94686.56;;;10.50;100.00
5913;BME280;2982;42.684;23.356;2024-02-23T08:20:09;94670.69;;;10.47;100.00
5913;BME280;2982;42.684;23.356;2024-02-23T08:22:35;94664.63;;;10.49;100.00
5913;BME280;2982;42.684;23.356;2024-02-23T08:25:00;94681.09;;;10.72;100.00
5913;BME280;2982;42.684;23.356;2024-02-23T08:27:26;94681.66;;;10.77;100.00
5913;BME280;2982;42.684;23.356;2024-02-23T08:35:56;94666.59;;;10.88;100.00
5913;BME280;2982;42.684;23.356;2024-02-23T08:38:22;94672.50;;;11.03;100.00
5913;BME280;2982;42.684;23.356;2024-02-23T08:40:47;94681.75;;;10.90;100.00
5913;BME280;2982;42.684;23.356;2024-02-23T08:43:13;94671.22;;;10.82;100.00
5913;BME280;2982;42.684;23.356;2024-02-23T08:45:38;94671.91;;;10.70;100.00
5913;BME280;2982;42.684;23.356;2024-02-23T08:48:04;94661.59;;;10.73;100.00
5913;BME280;2982;42.684;23.356;2024-02-23T08:50:29;94673.25;;;11.05;100.00
5913;BME280;2982;42.684;23.356;2024-02-23T08:52:55;94619.13;;;11.03;100.00
5913;BME280;2982;42.684;23.356;2024-02-23T08:55:20;94678.13;;;11.79;100.00
5913;BME280;2982;42.684;23.356;2024-02-23T08:57:46;94683.16;;;12.07;100.00
5913;BME280;2982;42.684;23.356;2024-02-23T09:00:11;94674.34;;;12.25;100.00
5913;BME280;2982;42.684;23.356;2024-02-23T09:02:37;94675.00;;;12.42;100.00
5913;BME280;2982;42.684;23.356;2024-02-23T09:05:02;94674.84;;;12.57;100.00
5913;BME280;2982;42.684;23.356;2024-02-23T09:07:28;94666.00;;;12.75;97.51
5913;BME280;2982;42.684;23.356;2024-02-23T09:09:53;94657.34;;;12.78;96.17
5913;BME280;2982;42.684;23.356;2024-02-23T09:12:18;94669.91;;;13.06;94.60
5913;BME280;2982;42.684;23.356;2024-02-23T09:14:44;94651.25;;;13.06;91.93
5913;BME280;2982;42.684;23.356;2024-02-23T09:17:09;94610.13;;;12.85;91.88
5913;BME280;2982;42.684;23.356;2024-02-23T09:19:35;94675.22;;;13.29;89.46
5913;BME280;2982;42.684;23.356;2024-02-23T09:22:00;94673.25;;;13.07;90.85
5913;BME280;2982;42.684;23.356;2024-02-23T09:24:26;94671.16;;;13.13;87.78
5913;BME280;2982;42.684;23.356;2024-02-23T09:26:51;94649.28;;;12.84;87.30
5913;BME280;2982;42.684;23.356;2024-02-23T09:29:16;94654.41;;;12.97;86.77
5913;BME280;2982;42.684;23.356;2024-02-23T09:31:42;94636.22;;;12.89;84.09
5913;BME280;2982;42.684;23.356;2024-02-23T09:34:07;94499.13;;;12.05;82.96
5913;BME280;2982;42.684;23.356;2024-02-23T09:36:32;94663.88;;;13.45;82.40
5913;BME280;2982;42.684;23.356;2024-02-23T09:38:58;94666.16;;;13.74;78.81
5913;BME280;2982;42.684;23.356;2024-02-23T09:41:24;94653.38;;;13.86;76.38
5913;BME280;2982;42.684;23.356;2024-02-23T09:43:50;94658.94;;;14.04;73.77
5913;BME280;2982;42.684;23.356;2024-02-23T09:46:15;94661.94;;;14.22;72.67
5913;BME280;2982;42.684;23.356;2024-02-23T09:48:44;94665.50;;;14.67;71.44
5913;BME280;2982;42.684;23.356;2024-02-23T09:51:13;94635.06;;;14.64;68.62
5913;BME280;2982;42.684;23.356;2024-02-23T09:53:39;94649.06;;;15.04;67.98
5913;BME280;2982;42.684;23.356;2024-02-23T09:56:06;94641.06;;;15.09;66.57
5913;BME280;2982;42.684;23.356;2024-02-23T09:58:34;94641.41;;;14.93;65.46
5913;BME280;2982;42.684;23.356;2024-02-23T10:01:02;94629.38;;;14.71;65.50
5913;BME280;2982;42.684;23.356;2024-02-23T10:03:28;94647.09;;;14.96;64.86
5913;BME280;2982;42.684;23.356;2024-02-23T10:05:54;94644.09;;;15.14;63.84
5913;BME280;2982;42.684;23.356;2024-02-23T10:08:20;94613.97;;;15.06;64.74
5913;BME280;2982;42.684;23.356;2024-02-23T10:10:46;94590.22;;;15.26;62.60
5913;BME280;2982;42.684;23.356;2024-02-23T10:13:12;94642.81;;;15.64;62.22
5913;BME280;2982;42.684;23.356;2024-02-23T10:15:37;94636.16;;;15.72;61.58
5913;BME280;2982;42.684;23.356;2024-02-23T10:18:03;94632.47;;;15.76;59.71
5913;BME280;2982;42.684;23.356;2024-02-23T10:20:29;94558.59;;;15.27;59.23
5913;BME280;2982;42.684;23.356;2024-02-23T10:22:54;94619.09;;;15.51;60.14
5913;BME280;2982;42.684;23.356;2024-02-23T10:25:20;94580.47;;;15.31;60.25
5913;BME280;2982;42.684;23.356;2024-02-23T10:27:45;94604.31;;;15.65;58.96
5913;BME280;2982;42.684;23.356;2024-02-23T10:30:13;94618.69;;;15.89;58.87
5913;BME280;2982;42.684;23.356;2024-02-23T10:32:38;94604.13;;;16.00;58.06
5913;BME280;2982;42.684;23.356;2024-02-23T10:35:07;94584.38;;;15.80;56.84
5913;BME280;2982;42.684;23.356;2024-02-23T10:37:34;94607.88;;;15.85;56.50
5913;BME280;2982;42.684;23.356;2024-02-23T10:40:00;94615.78;;;15.82;56.61
5913;BME280;2982;42.684;23.356;2024-02-23T10:42:30;94591.75;;;15.51;57.13
5913;BME280;2982;42.684;23.356;2024-02-23T10:44:58;94578.50;;;15.57;58.49
5913;BME280;2982;42.684;23.356;2024-02-23T10:47:24;94598.38;;;15.42;56.51
5913;BME280;2982;42.684;23.356;2024-02-23T10:49:50;94533.47;;;15.21;57.97
5913;BME280;2982;42.684;23.356;2024-02-23T10:52:17;94526.38;;;15.58;57.67
5913;BME280;2982;42.684;23.356;2024-02-23T10:54:46;94565.81;;;15.99;56.23
5913;BME280;2982;42.684;23.356;2024-02-23T10:57:13;94591.72;;;16.16;55.42
5913;BME280;2982;42.684;23.356;2024-02-23T10:59:39;94578.06;;;16.16;53.24
5913;BME280;2982;42.684;23.356;2024-02-23T11:02:05;94564.97;;;16.30;52.92
5913;BME280;2982;42.684;23.356;2024-02-23T11:04:32;94561.91;;;16.36;52.30
5913;BME280;2982;42.684;23.356;2024-02-23T11:06:59;94559.59;;;16.33;52.43
5913;BME280;2982;42.684;23.356;2024-02-23T11:09:25;94549.53;;;16.41;52.57
5913;BME280;2982;42.684;23.356;2024-02-23T11:11:53;94553.78;;;16.52;52.18
5913;BME280;2982;42.684;23.356;2024-02-23T11:14:29;94532.34;;;16.53;53.23
5913;BME280;2982;42.684;23.356;2024-02-23T11:16:54;94542.94;;;16.59;53.22
5913;BME280;2982;42.684;23.356;2024-02-23T11:19:20;94532.72;;;16.48;51.63
5913;BME280;2982;42.684;23.356;2024-02-23T11:21:52;94549.19;;;16.66;51.55
5913;BME280;2982;42.684;23.356;2024-02-23T11:24:18;94547.69;;;16.64;51.67
5913;BME280;2982;42.684;23.356;2024-02-23T11:26:44;94528.22;;;16.61;50.51
5913;BME280;2982;42.684;23.356;2024-02-23T11:29:13;94550.25;;;16.64;50.97
5913;BME280;2982;42.684;23.356;2024-02-23T11:31:45;94558.09;;;16.93;51.34
5913;BME280;2982;42.684;23.356;2024-02-23T11:34:11;94540.34;;;17.10;49.57
5913;BME280;2982;42.684;23.356;2024-02-23T11:36:38;94541.41;;;17.08;49.21
5913;BME280;2982;42.684;23.356;2024-02-23T11:39:03;94535.13;;;17.22;49.16
5913;BME280;2982;42.684;23.356;2024-02-23T11:41:29;94517.94;;;17.22;48.84
5913;BME280;2982;42.684;23.356;2024-02-23T11:43:55;94499.69;;;17.06;48.40
5913;BME280;2982;42.684;23.356;2024-02-23T11:46:21;94531.81;;;17.50;48.32
5913;BME280;2982;42.684;23.356;2024-02-23T11:48:47;94528.03;;;17.44;47.58
5913;BME280;2982;42.684;23.356;2024-02-23T11:51:15;94488.94;;;17.22;47.88
5913;BME280;2982;42.684;23.356;2024-02-23T11:53:40;94525.72;;;17.51;48.18
5913;BME280;2982;42.684;23.356;2024-02-23T11:56:06;94525.25;;;17.67;47.19
5913;BME280;2982;42.684;23.356;2024-02-23T11:58:34;94518.78;;;17.23;46.25
5913;BME280;2982;42.684;23.356;2024-02-23T12:01:00;94511.81;;;17.04;46.40
5913;BME280;2982;42.684;23.356;2024-02-23T12:03:26;94508.72;;;17.00;46.62
5913;BME280;2982;42.684;23.356;2024-02-23T12:05:51;94491.44;;;17.02;46.33
5913;BME280;2982;42.684;23.356;2024-02-23T12:08:17;94529.34;;;17.29;46.65
5913;BME280;2982;42.684;23.356;2024-02-23T12:10:43;94525.84;;;17.40;46.83
5913;BME280;2982;42.684;23.356;2024-02-23T12:13:08;94504.94;;;17.44;46.16
5913;BME280;2982;42.684;23.356;2024-02-23T12:15:33;94513.41;;;17.26;45.50
5913;BME280;2982;42.684;23.356;2024-02-23T12:17:59;94525.78;;;17.11;45.28
5913;BME280;2982;42.684;23.356;2024-02-23T12:20:24;94518.47;;;16.55;46.17
5913;BME280;2982;42.684;23.356;2024-02-23T12:22:50;94504.22;;;16.21;46.01
5913;BME280;2982;42.684;23.356;2024-02-23T12:25:15;94514.72;;;16.18;47.66
5913;BME280;2982;42.684;23.356;2024-02-23T12:27:41;94452.41;;;15.76;47.91
5913;BME280;2982;42.684;23.356;2024-02-23T12:30:13;94508.59;;;16.09;48.33
5913;BME280;2982;42.684;23.356;2024-02-23T12:32:39;94454.19;;;15.64;48.55
5913;BME280;2982;42.684;23.356;2024-02-23T12:35:05;94499.69;;;15.61;50.07
5913;BME280;2982;42.684;23.356;2024-02-23T12:37:34;94492.09;;;15.70;49.65
5913;BME280;2982;42.684;23.356;2024-02-23T12:40:00;94492.19;;;15.80;49.00
5913;BME280;2982;42.684;23.356;2024-02-23T12:42:25;94456.59;;;15.77;48.83
5913;BME280;2982;42.684;23.356;2024-02-23T12:44:51;94441.97;;;15.89;48.43
5913;BME280;2982;42.684;23.356;2024-02-23T12:47:16;94451.91;;;16.03;47.97
5913;BME280;2982;42.684;23.356;2024-02-23T12:49:41;94482.84;;;16.11;48.24
5913;BME280;2982;42.684;23.356;2024-02-23T12:52:07;94469.97;;;16.01;48.60
5913;BME280;2982;42.684;23.356;2024-02-23T12:54:32;94471.69;;;16.01;48.50
5913;BME280;2982;42.684;23.356;2024-02-23T12:56:57;94469.03;;;16.02;49.05
5913;BME280;2982;42.684;23.356;2024-02-23T12:59:23;94433.84;;;15.83;48.57
5913;BME280;2982;42.684;23.356;2024-02-23T13:01:48;94468.59;;;16.18;48.42
5913;BME280;2982;42.684;23.356;2024-02-23T13:04:14;94464.53;;;16.15;48.83
5913;BME280;2982;42.684;23.356;2024-02-23T13:06:40;94471.47;;;16.04;49.91